aviador You're here:

YBWP Decoded Metar

WEIPA in AUSTRALIA
Report Time2018-02-22 08:00:00
UTC Time2018-02-22 08:28:27
Flight Rules vfr VFR
Wind320° at 07 kt
W.Decomp.*RWY 30: 6.8 kt HW 1.7 kt RCW
W.Rank320° ranks 28
Current wind is above 320° avg. (5.2)
Visibility9999 m
Phenomena:Light Shower Rain
Clouds:Scattered 105 Hf
Expected CloudBase > 800 ft AGL from Temp-Dew spread
CeilingNone
Temp25°C (ISA +10)
Dew Point23°C (89% RH)
QNH1005 hPa
Density Alt1,844 ft
Elevation39 ft
Report Wrong Elevation
Raw Report
METAR YBWP 220800Z AUTO 32007KT 9999 -SHRA SCT105 25/23 Q1005 RESHRA=

Extra information for YBWP:More info

Metar Taf Metar & Taf Last 4 Metars F.Rules Stats Wind Profile Meteogram Temp Stats Airport Information Weather charts Add Link Nearby VenuesMetar ALERT Operation Metar Decoded Social comments